Time;durP1;ratioP1;P1;durP2;ratioP2;P2;SDS_P1;SDS_P2;PMS_P1;PMS_P2;Temp;Humidity;BMP_temperature;BMP_pressure;BME280_temperature;BME280_humidity;BME280_pressure;Samples;Min_cycle;Max_cycle;Signal;HPM_P1;HPM_P2
2022/04/15 00:01:16;;;;;;;29.02;17.15;;;;;;;10.26;80.50;102279.13;5051275;28;20025;-70
2022/04/15 00:03:43;;;;;;;23.60;16.92;;;;;;;10.24;80.89;102280.34;5047402;28;20037;-70
2022/04/15 00:06:10;;;;;;;31.55;17.13;;;;;;;10.19;81.19;102280.91;5034426;28;20483;-70
2022/04/15 00:08:37;;;;;;;26.63;17.20;;;;;;;10.17;80.73;102287.53;5035063;28;20076;-70
2022/04/15 00:11:03;;;;;;;26.33;18.00;;;;;;;10.09;81.19;102281.19;5034122;28;20108;-70
2022/04/15 00:13:31;;;;;;;31.27;18.38;;;;;;;10.11;81.40;102284.56;5041812;28;20068;-70
2022/04/15 00:15:57;;;;;;;26.38;17.98;;;;;;;10.12;80.87;102271.88;5034083;28;20037;-70
2022/04/15 00:18:23;;;;;;;31.98;19.60;;;;;;;10.07;81.37;102275.13;5034822;28;20083;-70
2022/04/15 00:20:48;;;;;;;28.58;18.45;;;;;;;10.02;81.52;102274.84;5033422;28;20084;-70
2022/04/15 00:23:14;;;;;;;31.02;18.52;;;;;;;9.99;81.32;102271.66;5035076;28;20041;-70
2022/04/15 00:25:39;;;;;;;27.05;17.77;;;;;;;9.96;81.34;102274.75;5053355;28;20029;-70
2022/04/15 00:28:04;;;;;;;24.02;18.75;;;;;;;9.88;81.58;102275.69;5053504;28;20503;-70
2022/04/15 00:30:30;;;;;;;25.27;17.90;;;;;;;9.82;82.14;102276.41;5053176;28;20036;-70
2022/04/15 00:32:55;;;;;;;25.40;17.75;;;;;;;9.77;81.12;102279.69;5045710;28;20026;-70
2022/04/15 00:35:20;;;;;;;26.42;19.48;;;;;;;9.78;81.49;102285.91;5034311;28;20033;-70
2022/04/15 00:37:47;;;;;;;25.13;18.70;;;;;;;9.76;82.35;102295.03;5033456;28;20017;-70
2022/04/15 00:40:12;;;;;;;26.02;19.58;;;;;;;9.73;82.24;102294.59;5046225;28;20029;-70
2022/04/15 00:42:38;;;;;;;26.20;18.80;;;;;;;9.70;81.88;102295.78;5036961;28;20074;-70
2022/04/15 00:45:03;;;;;;;26.77;18.70;;;;;;;9.68;82.05;102295.13;5037344;28;20037;-70
2022/04/15 00:47:51;;;;;;;28.33;20.02;;;;;;;9.70;81.82;102295.78;5034795;28;20029;-70
2022/04/15 00:50:18;;;;;;;27.02;19.55;;;;;;;9.56;81.93;102310.94;5042541;28;20033;-70
2022/04/15 00:52:46;;;;;;;28.80;20.75;;;;;;;9.55;82.10;102303.03;5053075;28;20036;-70
2022/04/15 00:55:13;;;;;;;28.00;19.75;;;;;;;9.52;82.12;102303.38;5048530;28;20111;-70
2022/04/15 00:57:43;;;;;;;31.15;20.77;;;;;;;9.48;83.44;102307.47;5033120;28;20039;-70
2022/04/15 01:00:12;;;;;;;29.27;21.02;;;;;;;9.45;82.15;102297.88;5048049;28;20112;-70
2022/04/15 01:02:38;;;;;;;32.03;20.23;;;;;;;9.38;82.41;102303.16;5031519;28;20029;-70
2022/04/15 01:05:07;;;;;;;29.42;20.27;;;;;;;9.39;83.27;102309.38;5037714;28;20040;-70
2022/04/15 01:07:40;;;;;;;26.88;19.75;;;;;;;9.31;82.55;102302.19;5033933;28;20079;-70
2022/04/15 01:10:08;;;;;;;26.27;19.25;;;;;;;9.23;82.57;102299.56;5037102;28;20036;-70
2022/04/15 01:12:37;;;;;;;27.88;19.75;;;;;;;9.21;82.62;102301.63;5034381;28;20037;-70
2022/04/15 01:15:06;;;;;;;27.10;19.50;;;;;;;9.14;83.61;102309.59;5037931;28;20035;-71
2022/04/15 01:17:33;;;;;;;27.92;19.90;;;;;;;9.14;83.53;102304.19;5032617;28;20059;-70
2022/04/15 01:19:59;;;;;;;30.08;19.30;;;;;;;9.07;83.47;102305.09;5028391;28;20051;-70
2022/04/15 01:22:35;;;;;;;29.42;19.70;;;;;;;9.09;83.66;102309.28;5052201;28;20469;-70
2022/04/15 01:25:01;;;;;;;25.83;19.60;;;;;;;9.03;83.73;102318.13;5038111;28;20063;-70
2022/04/15 01:27:28;;;;;;;25.17;19.55;;;;;;;8.98;83.87;102318.66;5032775;28;20033;-70
2022/04/15 01:29:53;;;;;;;27.17;20.13;;;;;;;8.92;83.16;102316.63;5032236;28;20025;-70
2022/04/15 01:32:18;;;;;;;28.83;20.95;;;;;;;8.93;83.68;102318.34;5032471;28;20040;-70
2022/04/15 01:34:44;;;;;;;26.33;19.95;;;;;;;8.94;83.54;102320.03;5044755;28;20036;-70
2022/04/15 01:37:13;;;;;;;28.35;20.60;;;;;;;8.95;83.48;102318.16;5052628;28;20461;-70
2022/04/15 01:39:38;;;;;;;28.05;20.90;;;;;;;9.02;83.46;102324.53;5042638;28;20025;-70
2022/04/15 01:42:04;;;;;;;28.65;20.33;;;;;;;9.01;83.43;102322.84;5049280;28;20476;-70
2022/04/15 01:44:29;;;;;;;25.35;20.40;;;;;;;8.92;84.02;102323.91;5037457;28;20127;-70
2022/04/15 01:46:54;;;;;;;29.17;20.40;;;;;;;8.90;83.43;102325.94;5072643;28;20403;-70
2022/04/15 01:49:20;;;;;;;27.55;20.05;;;;;;;8.83;84.04;102323.97;5044466;28;20029;-70
2022/04/15 01:51:45;;;;;;;26.48;20.23;;;;;;;8.81;83.91;102323.28;5032410;28;20022;-70
2022/04/15 01:54:10;;;;;;;28.90;19.02;;;;;;;8.76;83.40;102325.69;5040157;28;20025;-70
2022/04/15 01:56:35;;;;;;;25.05;19.08;;;;;;;8.74;84.29;102325.03;5052409;28;20068;-70
2022/04/15 01:59:01;;;;;;;25.58;19.23;;;;;;;8.70;83.78;102331.78;5014961;28;20029;-70
2022/04/15 02:01:26;;;;;;;26.67;19.10;;;;;;;8.71;83.75;102333.47;5030018;28;20026;-70
2022/04/15 02:03:51;;;;;;;23.42;18.08;;;;;;;8.73;83.84;102331.44;5033178;28;20416;-70
2022/04/15 02:06:16;;;;;;;24.65;17.70;;;;;;;8.68;82.65;102331.97;5032136;28;20099;-70
2022/04/15 02:08:42;;;;;;;23.30;17.75;;;;;;;8.68;83.22;102334.66;5033104;28;20053;-70
2022/04/15 02:11:07;;;;;;;22.92;17.35;;;;;;;8.64;83.45;102333.31;5032258;28;20045;-70
2022/04/15 02:13:32;;;;;;;23.85;17.52;;;;;;;8.62;83.25;102338.06;5033249;28;20522;-70
2022/04/15 02:15:58;;;;;;;23.10;17.30;;;;;;;8.59;83.56;102341.13;5047075;28;20029;-70
2022/04/15 02:18:26;;;;;;;23.63;17.90;;;;;;;8.51;83.87;102342.00;5032978;28;20577;-70
2022/04/15 02:20:51;;;;;;;28.55;18.45;;;;;;;8.45;83.52;102347.22;5031982;28;20041;-70
2022/04/15 02:23:16;;;;;;;25.17;18.08;;;;;;;8.34;84.19;102351.94;5031929;28;20030;-71
2022/04/15 02:25:42;;;;;;;28.05;18.67;;;;;;;8.33;84.63;102352.97;5050672;28;20464;-70
2022/04/15 02:28:07;;;;;;;25.23;19.20;;;;;;;8.29;84.64;102362.44;5051769;28;20025;-70
2022/04/15 02:30:33;;;;;;;30.35;18.35;;;;;;;8.26;84.02;102354.69;5036215;28;20040;-75
2022/04/15 02:32:58;;;;;;;28.58;19.17;;;;;;;8.24;84.99;102356.69;5032597;28;20033;-77
2022/04/15 02:35:23;;;;;;;29.27;19.15;;;;;;;8.23;84.34;102356.88;5030020;28;20082;-74
2022/04/15 02:37:48;;;;;;;28.33;18.02;;;;;;;8.18;84.54;102354.69;5052076;28;20037;-71
2022/04/15 02:40:14;;;;;;;28.70;18.80;;;;;;;8.21;84.47;102359.72;5035790;28;20036;-69
2022/04/15 02:42:39;;;;;;;26.77;18.55;;;;;;;8.13;83.83;102359.75;5031811;28;20030;-70
2022/04/15 02:45:06;;;;;;;24.35;18.67;;;;;;;8.09;85.02;102361.13;5044502;28;20083;-70
2022/04/15 02:47:32;;;;;;;25.08;18.33;;;;;;;8.11;85.07;102364.50;5043041;28;20040;-70
2022/04/15 02:49:57;;;;;;;27.23;19.45;;;;;;;8.16;85.12;102359.41;5047823;28;20111;-70
2022/04/15 02:52:23;;;;;;;26.77;19.42;;;;;;;8.09;84.94;102358.41;5051845;28;20358;-70
2022/04/15 02:54:48;;;;;;;26.25;18.65;;;;;;;8.10;84.23;102365.50;5040110;28;20037;-69
2022/04/15 02:57:13;;;;;;;23.13;17.77;;;;;;;8.06;84.44;102361.47;5050603;28;20076;-69
2022/04/15 02:59:39;;;;;;;24.98;17.55;;;;;;;8.03;84.73;102359.09;5055100;28;20496;-70
2022/04/15 03:02:04;;;;;;;24.77;17.35;;;;;;;7.98;85.30;102355.06;5053185;28;20033;-70
2022/04/15 03:04:30;;;;;;;25.65;18.65;;;;;;;8.00;85.06;102360.28;5028602;28;20046;-70
2022/04/15 03:06:55;;;;;;;28.38;18.23;;;;;;;7.99;84.52;102359.44;5035273;28;20029;-70
2022/04/15 03:09:25;;;;;;;28.73;18.48;;;;;;;7.93;85.33;102352.03;5052537;28;20195;-70
2022/04/15 03:11:50;;;;;;;25.30;19.27;;;;;;;7.90;85.04;102363.16;5054974;28;20033;-70
2022/04/15 03:14:17;;;;;;;26.90;18.30;;;;;;;7.88;84.83;102359.81;5042644;28;20032;-70
2022/04/15 03:16:43;;;;;;;28.80;18.70;;;;;;;7.91;85.26;102348.69;5044763;28;20061;-70
2022/04/15 03:19:08;;;;;;;26.63;18.25;;;;;;;7.90;85.37;102351.56;5018344;28;20119;-69
2022/04/15 03:21:35;;;;;;;29.48;19.95;;;;;;;7.92;84.35;102350.34;5034927;28;20504;-69
2022/04/15 03:24:01;;;;;;;29.92;19.15;;;;;;;7.90;84.71;102357.78;5038485;28;20962;-70
2022/04/15 03:26:26;;;;;;;26.00;18.95;;;;;;;7.89;84.69;102364.16;5054427;28;20033;-70
2022/04/15 03:28:52;;;;;;;29.75;19.85;;;;;;;7.88;84.69;102361.66;5054135;28;20040;-70
2022/04/15 03:31:17;;;;;;;30.98;18.88;;;;;;;7.89;84.46;102356.09;5036683;28;20043;-70
2022/04/15 03:33:42;;;;;;;30.63;19.27;;;;;;;7.80;85.09;102357.97;5052145;28;20080;-70
2022/04/15 03:36:08;;;;;;;32.53;20.08;;;;;;;7.77;84.61;102362.84;5024993;28;20083;-70
2022/04/15 03:38:34;;;;;;;26.45;19.77;;;;;;;7.70;85.27;102357.28;5036293;28;20060;-70
2022/04/15 03:40:59;;;;;;;29.58;19.13;;;;;;;7.73;85.07;102366.88;5052042;28;20068;-70
2022/04/15 03:43:24;;;;;;;30.20;18.60;;;;;;;7.66;84.75;102371.28;5054641;28;20553;-70
2022/04/15 03:45:49;;;;;;;27.00;19.15;;;;;;;7.67;84.67;102370.25;5051794;28;20029;-70
2022/04/15 03:48:15;;;;;;;26.13;19.48;;;;;;;7.70;84.65;102369.91;5048730;28;20063;-70
2022/04/15 03:50:40;;;;;;;31.02;20.50;;;;;;;7.74;85.56;102376.66;5021431;28;20440;-70
2022/04/15 03:53:05;;;;;;;28.27;19.55;;;;;;;7.75;85.17;102375.66;5051775;28;20036;-70
2022/04/15 03:55:30;;;;;;;28.70;19.05;;;;;;;7.74;85.21;102372.09;5052734;28;20041;-70
2022/04/15 03:57:56;;;;;;;28.88;18.92;;;;;;;7.72;85.02;102373.28;5054065;28;20041;-70
2022/04/15 04:00:23;;;;;;;28.33;18.67;;;;;;;7.70;85.31;102383.38;5053000;28;20388;-69
2022/04/15 04:02:51;;;;;;;27.02;19.35;;;;;;;7.68;85.77;102382.72;5050909;28;20120;-70
2022/04/15 04:05:17;;;;;;;28.13;19.02;;;;;;;7.70;86.20;102394.16;5052632;28;20047;-70
2022/04/15 04:07:43;;;;;;;29.90;19.40;;;;;;;7.72;86.26;102389.47;5053357;28;20560;-69
2022/04/15 04:10:11;;;;;;;29.48;19.48;;;;;;;7.71;86.62;102390.47;5051441;28;20029;-70
2022/04/15 04:12:37;;;;;;;33.90;21.23;;;;;;;7.72;87.48;102389.47;5053722;28;20040;-70
2022/04/15 04:15:04;;;;;;;33.55;22.27;;;;;;;7.77;88.31;102384.41;5034272;28;20037;-69
2022/04/15 04:17:29;;;;;;;37.80;24.35;;;;;;;7.73;89.92;102389.28;5034111;28;20108;-70
2022/04/15 04:19:55;;;;;;;38.40;24.42;;;;;;;7.81;90.35;102393.84;5000788;28;20501;-69
2022/04/15 04:22:21;;;;;;;57.85;25.15;;;;;;;7.80;90.14;102392.13;5041820;28;20036;-69
2022/04/15 04:24:46;;;;;;;51.08;25.05;;;;;;;7.78;91.64;102394.19;5049691;28;20039;-70
2022/04/15 04:27:12;;;;;;;150.35;23.80;;;;;;;7.81;91.58;102396.53;5053565;28;20060;-70
2022/04/15 04:29:37;;;;;;;99.25;22.40;;;;;;;7.79;92.05;102399.41;5053232;28;20033;-69
2022/04/15 04:32:02;;;;;;;83.45;21.70;;;;;;;7.76;93.38;102409.66;5053059;28;20025;-69
2022/04/15 04:34:28;;;;;;;125.35;20.50;;;;;;;7.65;92.58;102399.22;5051565;28;20488;-70
2022/04/15 04:36:53;;;;;;;65.28;20.58;;;;;;;7.66;93.38;102403.59;5035381;28;20124;-70
2022/04/15 04:39:18;;;;;;;54.05;20.67;;;;;;;7.65;94.03;102413.53;5029470;28;20396;-70
2022/04/15 04:41:44;;;;;;;69.18;19.70;;;;;;;7.60;93.78;102411.31;5033650;28;20021;-69
2022/04/15 04:44:09;;;;;;;58.22;20.55;;;;;;;7.64;94.69;102411.84;5044494;28;20439;-69
2022/04/15 04:46:35;;;;;;;50.95;20.35;;;;;;;7.61;94.90;102421.09;5053164;28;20044;-70
2022/04/15 04:49:01;;;;;;;86.90;21.58;;;;;;;7.61;93.92;102426.50;5033204;28;20087;-70
2022/04/15 04:51:26;;;;;;;56.47;19.60;;;;;;;7.66;94.47;102426.00;5048109;28;20026;-70
2022/04/15 04:53:51;;;;;;;52.92;20.02;;;;;;;7.68;94.28;102425.81;5040172;28;20060;-70
2022/04/15 04:56:17;;;;;;;45.83;19.90;;;;;;;7.61;94.84;102428.34;5033321;28;20385;-70
2022/04/15 04:58:43;;;;;;;29.17;17.45;;;;;;;7.60;94.43;102429.34;5033295;28;20037;-70
2022/04/15 05:01:08;;;;;;;83.35;17.60;;;;;;;7.51;94.39;102439.28;5036651;28;20167;-69
2022/04/15 05:03:33;;;;;;;100.30;16.92;;;;;;;7.46;94.40;102436.25;5052596;28;20480;-69
2022/04/15 05:05:59;;;;;;;45.15;16.92;;;;;;;7.42;94.67;102445.66;5052853;28;20051;-69
2022/04/15 05:08:24;;;;;;;26.65;15.93;;;;;;;7.46;95.69;102455.09;5030480;28;20045;-69
2022/04/15 05:10:49;;;;;;;26.25;18.08;;;;;;;7.45;95.18;102451.53;5031969;28;20083;-70
2022/04/15 05:13:14;;;;;;;29.05;17.08;;;;;;;7.44;95.73;102444.50;5031507;28;20041;-70
2022/04/15 05:15:40;;;;;;;37.78;17.77;;;;;;;7.48;95.85;102455.75;5013292;28;20406;-69
2022/04/15 05:18:05;;;;;;;24.08;17.20;;;;;;;7.53;96.21;102457.97;5013990;28;20030;-70
2022/04/15 05:20:30;;;;;;;52.78;16.25;;;;;;;7.42;95.89;102461.81;4995375;28;20120;-70
2022/04/15 05:22:56;;;;;;;33.03;15.90;;;;;;;7.47;95.61;102464.84;5020316;28;20044;-70
2022/04/15 05:25:21;;;;;;;24.25;16.85;;;;;;;7.51;95.77;102466.22;5013753;28;20045;-70
2022/04/15 05:27:46;;;;;;;25.35;16.17;;;;;;;7.62;95.94;102468.59;5018616;28;20358;-70
2022/04/15 05:30:12;;;;;;;28.80;16.05;;;;;;;7.69;95.57;102478.72;5031955;28;20041;-69
2022/04/15 05:32:37;;;;;;;87.90;18.60;;;;;;;7.60;95.73;102483.25;5030346;28;20057;-70
2022/04/15 05:35:03;;;;;;;27.90;17.33;;;;;;;7.58;96.18;102483.41;5012654;28;20034;-70
2022/04/15 05:37:28;;;;;;;47.15;18.05;;;;;;;7.56;96.34;102490.81;5013395;28;20041;-70
2022/04/15 05:39:53;;;;;;;25.63;17.38;;;;;;;7.53;96.46;102490.28;5023044;28;20065;-70
2022/04/15 05:42:19;;;;;;;33.47;18.25;;;;;;;7.55;97.11;102494.50;5032324;28;20388;-70
2022/04/15 05:44:44;;;;;;;29.73;19.25;;;;;;;7.57;97.21;102495.19;5013234;28;20038;-70
2022/04/15 05:47:09;;;;;;;27.33;18.35;;;;;;;7.63;97.20;102502.59;5018478;28;20460;-70
2022/04/15 05:49:35;;;;;;;29.58;17.70;;;;;;;7.62;96.79;102509.03;5030927;28;20029;-72
2022/04/15 05:52:01;;;;;;;24.33;18.65;;;;;;;7.60;97.33;102504.78;5030304;28;20152;-72
2022/04/15 05:54:26;;;;;;;24.65;18.75;;;;;;;7.67;97.01;102513.03;5022802;28;20037;-73
2022/04/15 05:56:51;;;;;;;30.08;20.27;;;;;;;7.73;96.92;102507.84;5032063;28;20025;-71
2022/04/15 05:59:20;;;;;;;25.73;17.95;;;;;;;7.78;96.86;102518.13;5032284;28;20037;-72
2022/04/15 06:01:46;;;;;;;26.08;18.17;;;;;;;7.86;97.13;102520.84;5016518;28;20105;-72
2022/04/15 06:04:11;;;;;;;24.55;18.17;;;;;;;7.91;96.86;102520.34;4994780;28;20147;-72
2022/04/15 06:06:36;;;;;;;27.70;18.55;;;;;;;7.90;96.31;102524.91;5011994;28;20029;-72
2022/04/15 06:09:01;;;;;;;25.88;18.45;;;;;;;7.97;96.71;102525.91;5040230;28;20108;-71
2022/04/15 06:11:27;;;;;;;25.73;18.50;;;;;;;8.02;96.24;102528.13;5032108;28;20022;-71
2022/04/15 06:13:52;;;;;;;30.88;19.92;;;;;;;8.07;96.22;102535.69;5043386;28;20091;-72
2022/04/15 06:16:20;;;;;;;25.75;19.45;;;;;;;8.09;96.39;102539.94;5052018;28;20037;-72
2022/04/15 06:18:45;;;;;;;26.33;19.58;;;;;;;8.14;96.54;102547.50;5047358;28;20469;-71
2022/04/15 06:21:10;;;;;;;27.42;19.55;;;;;;;8.13;96.61;102535.03;5032004;28;20061;-70
2022/04/15 06:23:36;;;;;;;25.75;19.55;;;;;;;8.16;96.53;102546.31;5023110;28;20037;-71
2022/04/15 06:26:01;;;;;;;26.67;19.60;;;;;;;8.19;96.02;102544.31;5039063;28;20029;-71
2022/04/15 06:28:26;;;;;;;27.40;18.88;;;;;;;8.23;95.62;102540.25;5034912;28;20017;-71
2022/04/15 06:30:51;;;;;;;23.05;19.27;;;;;;;8.29;96.14;102539.59;5051957;28;20436;-71
2022/04/15 06:33:20;;;;;;;28.10;19.40;;;;;;;8.30;95.60;102552.91;5046823;28;20048;-71
2022/04/15 06:35:45;;;;;;;26.77;19.35;;;;;;;8.33;95.57;102549.03;5035759;28;20704;-71
2022/04/15 06:38:11;;;;;;;28.85;19.20;;;;;;;8.27;95.83;102555.97;5035380;28;20061;-71
2022/04/15 06:40:38;;;;;;;26.52;18.90;;;;;;;8.21;95.47;102551.19;5040505;28;20048;-71
2022/04/15 06:43:04;;;;;;;25.63;18.63;;;;;;;8.33;96.04;102559.81;5039223;28;20079;-71
2022/04/15 06:45:29;;;;;;;24.60;17.92;;;;;;;8.36;95.59;102561.34;5045385;28;20444;-71
2022/04/15 06:47:54;;;;;;;27.65;18.38;;;;;;;8.37;95.32;102569.25;5052348;28;20064;-71
2022/04/15 06:50:20;;;;;;;23.90;16.48;;;;;;;8.36;95.01;102566.75;5059079;28;20090;-71
2022/04/15 06:52:45;;;;;;;26.35;17.85;;;;;;;8.40;95.91;102573.50;5057639;28;20032;-71
2022/04/15 06:55:11;;;;;;;23.52;17.33;;;;;;;8.40;95.22;102577.03;5075358;28;20021;-71
2022/04/15 06:57:36;;;;;;;25.42;17.45;;;;;;;8.43;95.99;102570.47;5075714;28;20033;-71
2022/04/15 07:00:03;;;;;;;24.02;18.05;;;;;;;8.43;95.49;102576.69;5075256;28;20067;-71
2022/04/15 07:02:28;;;;;;;23.63;17.33;;;;;;;8.49;95.33;102577.91;5046895;28;20453;-71
2022/04/15 07:04:53;;;;;;;25.92;18.55;;;;;;;8.51;94.89;102570.47;5053639;28;20071;-71
2022/04/15 07:07:19;;;;;;;28.48;18.13;;;;;;;8.57;95.52;102567.09;5054603;28;20060;-71
2022/04/15 07:09:49;;;;;;;24.70;17.55;;;;;;;8.62;94.12;102580.06;5052653;28;20045;-71
2022/04/15 07:12:15;;;;;;;24.40;17.17;;;;;;;8.57;94.45;102571.66;5052402;28;20112;-71
2022/04/15 07:14:40;;;;;;;26.20;16.63;;;;;;;8.62;94.18;102577.38;5035295;28;20391;-71
2022/04/15 07:17:05;;;;;;;23.33;16.40;;;;;;;8.61;94.39;102575.72;5035043;28;20036;-70
2022/04/15 07:19:31;;;;;;;23.75;16.55;;;;;;;8.64;94.26;102572.69;5036015;28;20034;-71
2022/04/15 07:21:57;;;;;;;22.42;16.45;;;;;;;8.68;94.24;102588.34;5035437;28;20029;-71
2022/04/15 07:24:22;;;;;;;23.42;16.92;;;;;;;8.69;95.05;102581.94;5048361;28;20163;-71
2022/04/15 07:26:47;;;;;;;25.15;17.30;;;;;;;8.71;93.93;102589.03;5053837;28;20060;-71
2022/04/15 07:29:13;;;;;;;26.33;16.38;;;;;;;8.73;94.82;102592.41;5051657;28;20052;-71
2022/04/15 07:31:40;;;;;;;22.50;15.98;;;;;;;8.74;94.27;102597.63;5054846;28;20025;-71
2022/04/15 07:34:06;;;;;;;22.75;15.73;;;;;;;8.76;94.03;102595.59;5052799;28;20032;-71
2022/04/15 07:36:42;;;;;;;20.80;15.57;;;;;;;8.76;94.24;102594.78;5054076;28;20064;-71
2022/04/15 07:39:14;;;;;;;20.17;15.25;;;;;;;8.77;94.59;102601.84;5038356;28;20091;-71
2022/04/15 07:41:40;;;;;;;23.48;15.52;;;;;;;8.81;94.20;102597.78;5038432;28;20164;-71
2022/04/15 07:44:07;;;;;;;21.52;16.27;;;;;;;8.84;93.96;102597.44;5034295;28;20065;-71
2022/04/15 07:46:33;;;;;;;27.42;16.08;;;;;;;8.84;94.38;102600.16;5016887;28;20540;-71
2022/04/15 07:48:59;;;;;;;20.13;15.27;;;;;;;8.90;94.33;102599.47;5035810;28;20039;-71
2022/04/15 07:51:24;;;;;;;25.45;16.40;;;;;;;8.88;93.32;102598.81;5052186;28;20028;-71
2022/04/15 07:53:49;;;;;;;22.33;16.27;;;;;;;8.93;93.48;102604.50;5053917;28;20033;-71
2022/04/15 07:56:14;;;;;;;23.23;16.70;;;;;;;8.91;93.03;102606.56;5051390;28;20524;-71
2022/04/15 07:58:40;;;;;;;24.42;16.65;;;;;;;8.93;92.86;102609.91;5034386;28;20033;-71
2022/04/15 08:01:06;;;;;;;25.65;16.95;;;;;;;8.98;93.64;102602.16;5049922;28;20021;-71
2022/04/15 08:03:32;;;;;;;28.23;16.48;;;;;;;9.05;94.14;102611.25;5048649;28;20057;-71
2022/04/15 08:05:57;;;;;;;25.20;17.10;;;;;;;8.99;93.33;102606.53;5034189;28;20157;-71
2022/04/15 08:08:22;;;;;;;25.05;17.52;;;;;;;9.10;93.57;102609.91;5038301;28;20408;-71
2022/04/15 08:10:48;;;;;;;27.08;16.33;;;;;;;9.07;93.08;102602.97;5014191;28;20037;-71
2022/04/15 08:13:14;;;;;;;24.58;16.73;;;;;;;9.15;92.67;102610.22;5014074;28;20026;-71
2022/04/15 08:15:39;;;;;;;24.55;16.13;;;;;;;9.13;92.82;102606.84;5014523;28;20030;-71
2022/04/15 08:18:05;;;;;;;23.30;15.38;;;;;;;9.19;92.27;102612.41;5028266;28;20103;-71
2022/04/15 08:20:30;;;;;;;20.50;15.60;;;;;;;9.23;92.32;102605.63;5033532;28;20025;-71
2022/04/15 08:22:56;;;;;;;25.80;15.07;;;;;;;9.25;92.10;102602.75;5025582;28;20037;-71
2022/04/15 08:25:21;;;;;;;21.88;15.38;;;;;;;9.34;92.26;102609.00;5014236;28;20461;-70
2022/04/15 08:27:46;;;;;;;21.35;14.90;;;;;;;9.39;91.91;102607.47;5013936;28;20030;-71
2022/04/15 08:30:12;;;;;;;20.42;14.27;;;;;;;9.40;90.74;102616.41;5027226;28;20026;-71
2022/04/15 08:32:37;;;;;;;22.45;14.48;;;;;;;9.40;90.51;102619.09;5032190;28;20400;-71
2022/04/15 08:35:03;;;;;;;26.52;15.73;;;;;;;9.45;90.78;102616.75;5025632;28;20061;-71
2022/04/15 08:37:29;;;;;;;15.07;12.40;;;;;;;9.54;89.85;102613.00;5013821;28;20077;-71
2022/04/15 08:39:54;;;;;;;18.05;11.90;;;;;;;9.50;89.09;102618.91;5023869;28;20037;-71
2022/04/15 08:42:20;;;;;;;13.48;9.98;;;;;;;9.61;88.51;102626.63;5033111;28;20061;-71
2022/04/15 08:44:56;;;;;;;14.32;10.00;;;;;;;9.66;87.46;102628.81;5000262;28;20026;-70
2022/04/15 08:47:21;;;;;;;13.20;9.15;;;;;;;9.65;86.38;102622.56;5033310;28;20091;-70
2022/04/15 08:49:47;;;;;;;12.68;9.20;;;;;;;9.65;86.13;102635.25;5031474;28;20037;-71
2022/04/15 08:52:15;;;;;;;14.88;9.35;;;;;;;9.69;85.46;102629.31;5033297;28;20468;-70
2022/04/15 08:54:41;;;;;;;17.73;10.57;;;;;;;9.78;85.65;102635.50;5032178;28;20033;-71
2022/04/15 08:57:07;;;;;;;14.45;9.68;;;;;;;9.79;85.53;102634.50;5033154;28;20048;-71
2022/04/15 08:59:33;;;;;;;13.63;9.35;;;;;;;9.76;84.95;102638.38;5021569;28;20037;-71
2022/04/15 09:01:58;;;;;;;12.95;9.30;;;;;;;9.86;84.26;102640.06;5009465;28;20045;-70
2022/04/15 09:04:23;;;;;;;14.15;9.60;;;;;;;9.90;86.11;102631.41;5032781;28;20064;-70
2022/04/15 09:06:56;;;;;;;13.63;8.88;;;;;;;9.98;83.49;102633.22;5032866;28;20032;-70
2022/04/15 09:09:29;;;;;;;14.77;9.27;;;;;;;10.03;83.69;102651.63;5036435;28;20064;-73
2022/04/15 09:11:59;;;;;;;14.90;9.65;;;;;;;10.09;83.46;102651.75;5034135;28;20033;-70
2022/04/15 09:14:26;;;;;;;15.32;9.45;;;;;;;10.11;83.44;102651.56;5033384;28;20033;-70
2022/04/15 09:16:52;;;;;;;23.38;9.50;;;;;;;10.17;82.20;102650.03;5038859;28;20033;-70
2022/04/15 09:19:18;;;;;;;14.00;9.48;;;;;;;10.24;82.83;102649.13;5042975;28;20040;-70
2022/04/15 09:21:52;;;;;;;13.75;8.65;;;;;;;10.39;83.00;102646.53;5052726;28;20036;-70
2022/04/15 09:24:31;;;;;;;14.60;9.07;;;;;;;10.51;82.56;102646.97;5070608;28;20032;-70
2022/04/15 09:26:57;;;;;;;12.07;8.90;;;;;;;10.60;81.11;102658.59;5055050;28;20545;-70
2022/04/15 09:29:25;;;;;;;14.45;8.77;;;;;;;10.67;80.60;102653.28;5057950;28;20025;-70
2022/04/15 09:31:55;;;;;;;11.20;8.00;;;;;;;10.63;79.41;102648.22;5052624;28;20067;-70
2022/04/15 09:34:20;;;;;;;12.45;8.48;;;;;;;10.75;80.42;102651.34;5052368;28;20115;-70
2022/04/15 09:36:46;;;;;;;11.13;8.68;;;;;;;10.87;80.54;102659.03;5052324;28;20163;-70
2022/04/15 09:39:14;;;;;;;13.25;8.30;;;;;;;11.04;79.73;102660.56;5051704;28;20076;-70
2022/04/15 09:41:54;;;;;;;12.32;8.55;;;;;;;11.01;78.42;102660.09;5049108;28;20040;-69
2022/04/15 09:44:21;;;;;;;13.70;8.60;;;;;;;11.06;78.39;102658.50;5033459;28;20033;-73
2022/04/15 09:46:47;;;;;;;10.80;8.05;;;;;;;11.13;78.72;102662.19;5035640;28;20075;-69
2022/04/15 09:49:13;;;;;;;13.13;8.65;;;;;;;11.14;78.56;102658.44;5051335;28;20044;-69
2022/04/15 09:51:52;;;;;;;13.43;8.98;;;;;;;11.28;78.85;102658.66;5052433;28;20028;-69
2022/04/15 09:54:24;;;;;;;10.30;8.30;;;;;;;11.35;78.39;102651.44;5046200;28;20017;-69
2022/04/15 09:56:52;;;;;;;10.55;7.75;;;;;;;11.47;77.72;102657.25;5032540;28;20040;-69
2022/04/15 09:59:22;;;;;;;11.77;8.38;;;;;;;11.59;76.42;102657.63;5014377;28;20037;-69
2022/04/15 10:01:49;;;;;;;11.02;7.90;;;;;;;11.62;76.22;102655.38;5029918;28;20520;-69
2022/04/15 10:04:14;;;;;;;14.18;8.18;;;;;;;11.59;75.35;102658.47;5032214;28;20060;-69
2022/04/15 10:06:41;;;;;;;12.85;7.97;;;;;;;11.79;77.22;102652.47;5017326;28;20060;-69
2022/04/15 10:09:12;;;;;;;8.90;7.35;;;;;;;11.81;74.52;102662.09;5042748;28;20041;-69
2022/04/15 10:11:42;;;;;;;9.38;7.30;;;;;;;11.84;74.70;102660.91;5052238;28;20027;-69
2022/04/15 10:14:09;;;;;;;10.90;7.07;;;;;;;11.93;74.38;102653.53;5056266;28;20029;-69
2022/04/15 10:16:37;;;;;;;10.15;7.25;;;;;;;12.06;74.18;102648.22;5056068;28;20033;-70
2022/04/15 10:19:02;;;;;;;9.52;6.55;;;;;;;12.16;72.32;102654.19;5055869;28;20087;-71
2022/04/15 10:21:34;;;;;;;9.38;6.85;;;;;;;12.35;73.29;102651.91;5056064;28;20040;-69
2022/04/15 10:24:01;;;;;;;9.65;6.97;;;;;;;12.52;72.59;102653.34;5056239;28;20040;-70
2022/04/15 10:26:31;;;;;;;10.13;6.60;;;;;;;12.53;71.49;102636.03;5055985;28;20029;-69
2022/04/15 10:29:00;;;;;;;7.47;6.65;;;;;;;12.69;72.81;102655.78;5054667;28;20037;-69
2022/04/15 10:31:36;;;;;;;10.07;6.97;;;;;;;12.64;70.77;102645.50;5055606;28;20038;-69
2022/04/15 10:34:13;;;;;;;9.63;6.60;;;;;;;12.74;72.48;102639.75;5055736;28;20404;-73
2022/04/15 10:36:43;;;;;;;9.75;6.70;;;;;;;12.83;72.04;102646.75;5055909;28;20029;-73
2022/04/15 10:39:09;;;;;;;8.40;6.72;;;;;;;12.86;70.20;102643.63;5055576;28;20465;-76
2022/04/15 10:41:41;;;;;;;9.60;6.65;;;;;;;12.81;70.64;102639.81;5049770;28;20029;-74
2022/04/15 10:44:07;;;;;;;;;;;;;;;12.90;73.38;102646.78;5050052;28;20484;-74
2022/04/15 10:46:36;;;;;;;8.43;5.97;;;;;;;12.70;68.37;102638.47;5054838;28;19947;-74
2022/04/15 10:49:18;;;;;;;7.50;6.20;;;;;;;12.76;68.65;102637.69;5035439;28;20385;-73
2022/04/15 10:51:44;;;;;;;11.23;7.00;;;;;;;12.70;68.37;102638.47;5044347;28;20083;-72
2022/04/15 10:54:38;;;;;;;8.38;6.43;;;;;;;12.77;69.91;102634.78;5055377;28;20036;-71
2022/04/15 10:57:14;;;;;;;6.43;5.82;;;;;;;12.78;67.89;102635.59;5055492;28;20029;-73
2022/04/15 11:02:45;;;;;;;10.73;6.00;;;;;;;12.94;69.40;102639.94;5052828;28;20175;-72
2022/04/15 11:05:42;;;;;;;8.27;6.03;;;;;;;13.01;70.28;102642.69;5037267;28;20461;-73
2022/04/15 11:08:11;;;;;;;8.93;5.95;;;;;;;13.07;69.34;102633.75;5055321;28;20053;-72
2022/04/15 11:10:42;;;;;;;10.23;6.50;;;;;;;13.26;68.97;102635.75;5054843;28;20542;-71
2022/04/15 11:13:08;;;;;;;6.55;5.90;;;;;;;13.48;68.02;102630.25;5053389;28;20029;-72
2022/04/15 11:16:10;;;;;;;7.53;6.00;;;;;;;13.68;69.12;102634.97;5054978;28;20179;-72
2022/04/15 11:18:50;;;;;;;12.25;5.80;;;;;;;13.76;66.13;102637.53;5054393;28;20033;-72